Time;durP1;ratioP1;P1;durP2;ratioP2;P2;SDS_P1;SDS_P2;PMS_P1;PMS_P2;Temp;Humidity;BMP_temperature;BMP_pressure;BME280_temperature;BME280_humidity;BME280_pressure;Samples;Min_cycle;Max_cycle;Signal;HPM_P1;HPM_P2
2021/06/14 00:00:25;;;;;;;2.67;2.15;;;24.50;90.10;;;;;;3566336;40;20390;-73
2021/06/14 00:02:51;;;;;;;2.35;2.15;;;24.50;89.80;;;;;;3559060;40;20737;-74
2021/06/14 00:05:27;;;;;;;2.25;2.10;;;24.50;91.30;;;;;;3549736;40;20399;-75
2021/06/14 00:07:53;;;;;;;2.63;2.25;;;24.50;89.70;;;;;;3560967;40;20370;-74
2021/06/14 00:10:19;;;;;;;3.00;2.80;;;24.40;90.40;;;;;;3571195;40;20374;-74
2021/06/14 00:12:47;;;;;;;2.95;2.75;;;24.40;90.90;;;;;;3568753;40;20376;-74
2021/06/14 00:15:13;;;;;;;3.22;2.92;;;24.30;93.60;;;;;;3560500;40;20654;-74
2021/06/14 00:17:40;;;;;;;2.50;2.30;;;;;;;;;;3569731;40;20710;-75
2021/06/14 00:20:10;;;;;;;2.42;2.22;;;23.80;81.90;;;;;;3570662;40;20409;-73
2021/06/14 00:22:36;;;;;;;2.83;2.53;;;23.70;81.70;;;;;;3569542;40;20410;-74
2021/06/14 00:25:03;;;;;;;2.83;2.63;;;23.60;82.00;;;;;;3570150;40;20413;-74
2021/06/14 00:27:29;;;;;;;3.10;2.10;;;23.60;80.70;;;;;;3571803;40;20377;-74
2021/06/14 00:29:56;;;;;;;2.58;2.05;;;23.70;80.90;;;;;;3571623;40;20405;-74
2021/06/14 00:32:22;;;;;;;2.35;2.15;;;23.70;79.00;;;;;;3559842;40;20422;-74
2021/06/14 00:34:48;;;;;;;2.25;2.15;;;23.80;78.60;;;;;;3568671;40;20394;-75
2021/06/14 00:37:14;;;;;;;3.28;2.00;;;23.80;79.00;;;;;;3571026;40;20378;-75
2021/06/14 00:39:40;;;;;;;2.63;2.42;;;23.80;79.70;;;;;;3571195;40;20353;-74
2021/06/14 00:42:07;;;;;;;2.30;2.10;;;23.70;80.00;;;;;;3573745;40;20419;-74
2021/06/14 00:44:34;;;;;;;2.92;2.30;;;;;;;;;;3571379;40;20406;-75
2021/06/14 00:47:01;;;;;;;1.65;1.55;;;;;;;;;;3561882;40;20486;-74
2021/06/14 00:49:27;;;;;;;2.88;2.20;;;;;;;;;;3563772;40;20475;-75
2021/06/14 00:51:53;;;;;;;2.55;2.35;;;;;;;;;;3561728;40;20348;-75
2021/06/14 00:54:20;;;;;;;2.28;2.10;;;;;;;;;;3560369;40;20407;-75
2021/06/14 00:56:46;;;;;;;2.38;2.00;;;;;;;;;;3562070;40;20401;-74
2021/06/14 00:59:14;;;;;;;2.58;2.35;;;;;;;;;;3571578;40;20458;-74
2021/06/14 01:04:09;;;;;;;2.50;2.30;;;23.60;79.60;;;;;;3597315;40;20415;-71
2021/06/14 01:06:36;;;;;;;2.45;2.25;;;23.30;81.10;;;;;;3597905;40;20360;-72
2021/06/14 01:09:02;;;;;;;3.15;2.33;;;23.40;79.70;;;;;;3597759;40;20353;-72
2021/06/14 01:11:34;;;;;;;2.40;2.20;;;23.40;79.60;;;;;;3596253;40;20417;-71
2021/06/14 01:14:06;;;;;;;3.35;2.30;;;23.40;79.80;;;;;;3596537;40;20440;-72
2021/06/14 01:16:44;;;;;;;2.78;2.20;;;23.30;80.30;;;;;;3587655;40;20366;-71
2021/06/14 01:19:21;;;;;;;2.28;2.17;;;;;;;;;;3587926;40;20719;-71
2021/06/14 01:21:54;;;;;;;3.70;2.22;;;;;;;;;;3587597;40;20379;-71
2021/06/14 01:24:38;;;;;;;2.50;2.17;;;;;;;;;;3587042;40;20534;-71
2021/06/14 01:27:06;;;;;;;2.20;2.10;;;;;;;;;;3587745;40;20395;-71
2021/06/14 01:29:34;;;;;;;2.40;2.20;;;;;;;;;;3587615;40;20354;-71
2021/06/14 01:32:01;;;;;;;2.35;2.25;;;;;;;;;;3587663;40;20731;-72
2021/06/14 01:34:28;;;;;;;2.37;2.07;;;;;;;;;;3586401;40;20406;-71
2021/06/14 01:36:56;;;;;;;2.25;2.00;;;;;;;;;;3585982;40;20732;-72
2021/06/14 01:39:22;;;;;;;2.33;2.10;;;;;;;;;;3586330;40;20420;-72
2021/06/14 01:41:49;;;;;;;3.15;2.35;;;;;;;;;;3587550;40;20367;-72
2021/06/14 01:44:16;;;;;;;2.63;2.00;;;;;;;;;;3586041;40;20439;-71
2021/06/14 01:46:44;;;;;;;2.60;2.33;;;;;;;;;;3587447;40;20347;-72
2021/06/14 01:49:11;;;;;;;2.10;1.83;;;;;;;;;;3585845;40;20410;-71
2021/06/14 01:51:39;;;;;;;4.10;2.25;;;;;;;;;;3585813;40;20785;-72
2021/06/14 01:54:06;;;;;;;2.63;2.23;;;;;;;;;;3587487;40;20783;-72
2021/06/14 01:56:34;;;;;;;2.40;2.20;;;;;;;;;;3587247;40;20362;-72
2021/06/14 01:59:01;;;;;;;1.80;1.70;;;;;;;;;;3586147;40;20487;-72
2021/06/14 02:01:28;;;;;;;2.88;2.33;;;;;;;;;;3584002;40;20455;-72
2021/06/14 02:03:56;;;;;;;3.30;2.30;;;;;;;;;;3570151;40;20411;-72
2021/06/14 02:06:23;;;;;;;2.15;2.05;;;;;;;;;;3565757;40;20449;-73
2021/06/14 02:08:49;;;;;;;2.43;1.90;;;;;;;;;;3567355;40;20778;-71
2021/06/14 02:11:15;;;;;;;2.20;2.05;;;;;;;;;;3567115;40;20358;-72
2021/06/14 02:13:42;;;;;;;2.70;2.50;;;;;;;;;;3545578;40;20444;-72
2021/06/14 02:16:08;;;;;;;2.80;2.60;;;;;;;;;;3548003;40;20411;-72
2021/06/14 02:18:35;;;;;;;2.95;2.63;;;;;;;;;;3555523;40;20355;-72
2021/06/14 02:21:02;;;;;;;2.80;2.60;;;;;;;;;;3555681;40;20367;-71
2021/06/14 02:23:29;;;;;;;2.53;2.33;;;;;;;;;;3547315;40;20638;-73
2021/06/14 02:25:55;;;;;;;3.40;3.15;;;;;;;;;;3547202;40;20781;-72
2021/06/14 02:28:21;;;;;;;3.42;2.92;;;;;;;;;;3547382;40;20419;-72
2021/06/14 02:30:47;;;;;;;3.55;3.25;;;;;;;;;;3555419;40;20457;-71
2021/06/14 02:33:13;;;;;;;2.40;2.30;;;22.10;88.60;;;;;;3547167;40;20402;-72
2021/06/14 02:35:39;;;;;;;3.10;2.90;;;22.00;88.60;;;;;;3555422;40;20498;-71
2021/06/14 02:38:08;;;;;;;2.72;2.53;;;22.00;88.80;;;;;;3555437;40;20388;-73
2021/06/14 02:40:34;;;;;;;3.35;3.05;;;;;;;;;;3547229;40;20419;-71
2021/06/14 02:43:02;;;;;;;2.77;2.57;;;;;;;;;;3555514;40;20473;-78
2021/06/14 02:45:28;;;;;;;2.72;2.33;;;;;;;;;;3572524;40;20463;-80
2021/06/14 02:47:55;;;;;;;3.17;2.40;;;;;;;;;;3586288;40;20399;-79
2021/06/14 02:50:21;;;;;;;2.30;2.10;;;;;;;;;;3582503;40;20404;-76
2021/06/14 02:52:48;;;;;;;2.58;2.38;;;;;;;;;;3583144;40;20445;-78
2021/06/14 02:55:18;;;;;;;2.40;2.20;;;;;;;;;;3586866;40;20368;-78
2021/06/14 02:57:45;;;;;;;2.65;2.45;;;;;;;;;;3576583;40;20400;-74
2021/06/14 03:00:12;;;;;;;2.80;2.60;;;;;;;;;;3566877;40;20438;-75
2021/06/14 03:02:39;;;;;;;2.75;2.55;;;22.10;89.00;;;;;;3577483;40;20410;-74
2021/06/14 03:05:07;;;;;;;2.40;2.20;;;21.60;90.00;;;;;;3587691;40;20414;-74
2021/06/14 03:07:33;;;;;;;2.72;2.53;;;21.60;89.80;;;;;;3587738;40;20401;-74
2021/06/14 03:09:59;;;;;;;2.60;2.40;;;21.50;89.50;;;;;;3576688;40;20525;-74
2021/06/14 03:12:27;;;;;;;2.67;2.47;;;21.60;89.50;;;;;;3593061;40;20393;-77
2021/06/14 03:14:55;;;;;;;2.83;2.42;;;21.60;89.70;;;;;;3591368;40;20463;-74
2021/06/14 03:17:23;;;;;;;3.30;2.58;;;21.60;89.10;;;;;;3585219;40;20514;-73
2021/06/14 03:19:52;;;;;;;2.95;2.50;;;21.70;89.90;;;;;;3585365;40;20792;-74
2021/06/14 03:22:18;;;;;;;2.38;2.22;;;21.60;90.10;;;;;;3585241;40;20909;-73
2021/06/14 03:24:44;;;;;;;2.73;2.53;;;21.60;89.90;;;;;;3592271;40;20382;-73
2021/06/14 03:27:14;;;;;;;2.60;2.40;;;21.60;90.00;;;;;;3585186;40;20382;-74
2021/06/14 03:29:43;;;;;;;2.85;2.65;;;21.60;90.20;;;;;;3595627;40;20404;-74
2021/06/14 03:32:09;;;;;;;2.22;2.03;;;21.50;90.50;;;;;;3589900;40;20729;-74
2021/06/14 03:34:37;;;;;;;2.33;2.13;;;21.50;90.70;;;;;;3585160;40;20399;-74
2021/06/14 03:37:03;;;;;;;2.40;2.10;;;21.50;91.00;;;;;;3576620;40;20403;-74
2021/06/14 03:39:29;;;;;;;2.80;2.57;;;21.50;90.90;;;;;;3576598;40;20479;-74
2021/06/14 03:41:55;;;;;;;2.70;2.50;;;21.50;91.70;;;;;;3585065;40;20795;-74
2021/06/14 03:44:22;;;;;;;2.57;2.37;;;21.30;91.60;;;;;;3585276;40;20378;-73
2021/06/14 03:46:50;;;;;;;2.97;2.78;;;21.40;91.60;;;;;;3585197;40;20389;-74
2021/06/14 03:49:16;;;;;;;2.90;2.70;;;21.30;92.20;;;;;;3576233;40;20466;-75
2021/06/14 03:51:42;;;;;;;3.08;2.88;;;21.10;92.80;;;;;;3576484;40;20404;-74
2021/06/14 03:54:08;;;;;;;3.80;3.50;;;20.90;93.20;;;;;;3576735;40;20756;-74
2021/06/14 03:56:36;;;;;;;3.15;2.90;;;20.70;93.40;;;;;;3576866;40;20376;-74
2021/06/14 03:59:03;;;;;;;3.23;3.00;;;20.70;93.30;;;;;;3567976;40;20724;-73
2021/06/14 04:01:29;;;;;;;3.70;2.75;;;20.70;92.90;;;;;;3575805;40;20408;-75
2021/06/14 04:04:12;;;;;;;3.33;3.00;;;20.70;93.30;;;;;;3575143;40;20450;-74
2021/06/14 04:06:38;;;;;;;3.05;2.67;;;20.70;93.60;;;;;;3557408;40;20469;-74
2021/06/14 04:09:05;;;;;;;3.30;3.10;;;20.70;93.40;;;;;;3556375;40;20390;-74
2021/06/14 04:11:31;;;;;;;3.97;3.67;;;20.60;94.00;;;;;;3548192;40;20529;-74
2021/06/14 04:13:57;;;;;;;3.10;2.80;;;20.60;94.10;;;;;;3553335;40;20492;-75
2021/06/14 04:16:23;;;;;;;3.70;3.40;;;20.50;94.50;;;;;;3556531;40;20808;-74
2021/06/14 04:18:49;;;;;;;3.00;2.80;;;20.50;94.40;;;;;;3548171;40;20473;-74
2021/06/14 04:21:17;;;;;;;3.13;2.83;;;20.50;94.90;;;;;;3548057;40;20403;-75
2021/06/14 04:23:44;;;;;;;3.72;3.42;;;20.40;94.80;;;;;;3556530;40;20391;-76
2021/06/14 04:26:10;;;;;;;3.33;3.03;;;20.40;94.70;;;;;;3553492;40;20392;-74
2021/06/14 04:28:37;;;;;;;5.07;3.30;;;20.50;94.10;;;;;;3576300;40;20371;-74
2021/06/14 04:31:03;;;;;;;3.55;2.90;;;20.40;94.50;;;;;;3576251;40;20531;-74
2021/06/14 04:33:29;;;;;;;4.15;3.10;;;20.40;94.50;;;;;;3576167;40;20379;-75
2021/06/14 04:35:55;;;;;;;2.63;2.42;;;20.50;94.20;;;;;;3576084;40;20384;-74
2021/06/14 04:38:22;;;;;;;3.30;2.53;;;20.50;93.50;;;;;;3588365;40;20385;-75
2021/06/14 04:40:48;;;;;;;2.95;2.53;;;20.60;92.80;;;;;;3597901;40;20365;-75
2021/06/14 04:43:14;;;;;;;6.47;4.10;;;20.70;92.80;;;;;;3587477;40;20446;-75
2021/06/14 04:45:40;;;;;;;3.63;3.33;;;20.70;94.90;;;;;;3595976;40;20471;-75
2021/06/14 04:48:06;;;;;;;3.33;3.03;;;20.60;95.50;;;;;;3596730;40;20365;-77
2021/06/14 04:50:32;;;;;;;3.67;3.28;;;20.60;94.80;;;;;;3588263;40;20415;-74
2021/06/14 04:52:58;;;;;;;3.33;3.03;;;20.60;94.80;;;;;;3597026;40;20750;-76
2021/06/14 04:55:25;;;;;;;3.50;3.20;;;20.70;95.20;;;;;;3597995;40;20733;-74
2021/06/14 04:57:51;;;;;;;3.13;2.88;;;20.70;95.60;;;;;;3598739;40;20381;-74
2021/06/14 05:00:17;;;;;;;3.42;3.13;;;20.70;95.30;;;;;;3598127;39;20438;-74
2021/06/14 05:02:44;;;;;;;3.35;3.05;;;20.80;95.40;;;;;;3588757;40;20424;-74
2021/06/14 05:05:10;;;;;;;3.50;3.20;;;20.80;95.70;;;;;;3597419;39;20408;-73
2021/06/14 05:07:36;;;;;;;3.13;2.90;;;20.80;96.00;;;;;;3588222;40;20396;-76
2021/06/14 05:10:03;;;;;;;4.93;4.47;;;20.90;96.30;;;;;;3593823;40;20725;-74
2021/06/14 05:12:30;;;;;;;6.05;3.40;;;20.90;96.50;;;;;;3595553;40;20493;-77
2021/06/14 05:14:56;;;;;;;5.47;3.88;;;20.90;96.40;;;;;;3594476;40;20375;-77
2021/06/14 05:17:22;;;;;;;6.07;4.18;;;21.00;96.20;;;;;;3597141;40;20404;-79
2021/06/14 05:19:48;;;;;;;4.88;3.70;;;20.90;96.00;;;;;;3598153;40;20737;-76
2021/06/14 05:22:16;;;;;;;4.28;3.60;;;20.80;96.20;;;;;;3588512;40;20542;-76
2021/06/14 05:24:42;;;;;;;4.03;3.70;;;20.90;95.90;;;;;;3595953;40;20509;-76
2021/06/14 05:27:09;;;;;;;6.18;3.80;;;21.00;95.90;;;;;;3587880;40;20489;-75
2021/06/14 05:29:36;;;;;;;4.13;3.25;;;21.00;95.70;;;;;;3595758;40;20369;-75
2021/06/14 05:32:03;;;;;;;4.55;3.40;;;21.10;95.80;;;;;;3594741;40;20671;-76
2021/06/14 05:34:29;;;;;;;4.85;3.20;;;21.20;95.40;;;;;;3595735;40;20745;-76
2021/06/14 05:39:23;;;;;;;5.63;3.42;;;21.40;94.70;;;;;;3578446;40;20544;-75
2021/06/14 05:41:49;;;;;;;3.53;3.10;;;21.50;95.00;;;;;;3579757;40;20401;-76
2021/06/14 05:44:15;;;;;;;4.28;3.42;;;;;;;;;;3580318;40;20368;-76
2021/06/14 05:46:43;;;;;;;3.80;3.50;;;;;;;;;;3582688;40;20470;-76
2021/06/14 05:49:09;;;;;;;3.10;2.78;;;21.50;94.70;;;;;;3577873;40;20392;-75
2021/06/14 05:51:35;;;;;;;2.90;2.70;;;21.70;93.70;;;;;;3575522;40;20496;-76
2021/06/14 05:54:01;;;;;;;3.25;2.95;;;;;;;;;;3568273;40;20411;-76
2021/06/14 05:56:27;;;;;;;3.15;2.85;;;21.70;92.80;;;;;;3569288;40;20412;-75
2021/06/14 05:58:53;;;;;;;4.38;3.20;;;22.00;93.00;;;;;;3575292;40;20661;-75
2021/06/14 06:01:19;;;;;;;5.13;3.80;;;22.00;94.40;;;;;;3577598;40;20492;-75
2021/06/14 06:03:46;;;;;;;4.05;3.33;;;22.00;94.70;;;;;;3578952;40;20370;-76
2021/06/14 06:06:13;;;;;;;5.05;3.70;;;22.10;94.70;;;;;;3582058;40;20455;-75
2021/06/14 06:08:39;;;;;;;4.17;3.60;;;22.10;94.60;;;;;;3580443;40;20370;-76
2021/06/14 06:11:05;;;;;;;4.10;3.70;;;22.10;94.40;;;;;;3577179;40;20402;-75
2021/06/14 06:13:31;;;;;;;4.50;4.10;;;;;;;;;;3577386;40;20499;-74
2021/06/14 06:15:57;;;;;;;3.72;3.38;;;;;;;;;;3579147;40;20374;-75
2021/06/14 06:18:24;;;;;;;5.72;3.92;;;;;;;;;;3587744;40;20428;-75
2021/06/14 06:20:52;;;;;;;4.80;4.40;;;;;;;;;;3579816;40;20375;-75
2021/06/14 06:23:18;;;;;;;6.13;5.28;;;;;;;;;;3571897;40;20408;-76
2021/06/14 06:25:44;;;;;;;6.50;5.82;;;22.10;93.90;;;;;;3577890;40;20395;-75
2021/06/14 06:28:10;;;;;;;6.55;6.05;;;22.60;94.10;;;;;;3577696;40;20368;-76
2021/06/14 06:30:37;;;;;;;8.27;7.47;;;22.70;94.20;;;;;;3581278;40;20664;-76
2021/06/14 06:33:04;;;;;;;10.07;9.10;;;22.90;94.50;;;;;;3569089;40;20394;-75
2021/06/14 06:35:30;;;;;;;7.82;7.13;;;23.00;94.90;;;;;;3572516;40;20418;-76
2021/06/14 06:37:57;;;;;;;8.43;7.60;;;23.10;95.30;;;;;;3577259;40;20437;-76
2021/06/14 06:40:23;;;;;;;10.80;9.70;;;23.20;95.40;;;;;;3567788;40;20859;-76
2021/06/14 06:42:51;;;;;;;9.38;8.48;;;23.20;95.30;;;;;;3584147;40;20389;-76
2021/06/14 06:45:18;;;;;;;11.00;10.00;;;23.30;95.70;;;;;;3584062;40;20861;-75
2021/06/14 06:47:44;;;;;;;13.77;12.48;;;23.40;95.60;;;;;;3583623;40;20663;-75
2021/06/14 06:50:11;;;;;;;11.40;10.30;;;23.50;95.70;;;;;;3568352;40;20412;-76
2021/06/14 06:52:37;;;;;;;13.23;12.03;;;23.60;97.10;;;;;;3572223;40;20398;-73
2021/06/14 06:55:10;;;;;;;14.43;13.13;;;23.60;95.80;;;;;;3569931;40;20442;-76
2021/06/14 06:57:36;;;;;;;15.37;13.93;;;23.80;95.60;;;;;;3564091;40;20430;-78
2021/06/14 07:00:03;;;;;;;12.37;11.27;;;23.90;94.90;;;;;;3582043;40;20374;-76
2021/06/14 07:02:29;;;;;;;13.43;12.18;;;24.00;95.00;;;;;;3567841;40;20791;-75
2021/06/14 07:04:55;;;;;;;14.80;13.20;;;24.10;94.90;;;;;;3577223;40;20396;-76
2021/06/14 07:07:21;;;;;;;13.43;12.13;;;24.20;93.90;;;;;;3573453;40;20439;-80
2021/06/14 07:09:47;;;;;;;14.50;12.90;;;24.30;94.20;;;;;;3579066;40;20375;-75
2021/06/14 07:12:15;;;;;;;13.90;12.60;;;24.40;94.10;;;;;;3574852;40;20406;-75
2021/06/14 07:14:41;;;;;;;14.52;13.07;;;24.60;93.70;;;;;;3577729;40;20398;-76
2021/06/14 07:17:07;;;;;;;13.20;12.10;;;24.70;93.50;;;;;;3577596;40;20783;-75
2021/06/14 07:19:33;;;;;;;12.75;11.43;;;24.70;93.50;;;;;;3575197;40;20408;-76
2021/06/14 07:21:59;;;;;;;13.20;11.82;;;24.80;92.40;;;;;;3581939;40;20464;-76
2021/06/14 07:24:25;;;;;;;15.25;13.73;;;25.00;92.80;;;;;;3579660;40;20368;-75
2021/06/14 07:26:51;;;;;;;15.65;13.77;;;25.00;93.10;;;;;;3587582;40;20383;-75
2021/06/14 07:29:18;;;;;;;12.93;11.60;;;25.10;93.40;;;;;;3570731;40;20486;-81
2021/06/14 07:31:44;;;;;;;12.85;11.60;;;25.20;92.80;;;;;;3587283;40;20436;-75
2021/06/14 07:34:11;;;;;;;13.35;12.05;;;;;;;;;;3575415;40;20640;-78
2021/06/14 07:36:37;;;;;;;14.88;13.38;;;;;;;;;;3581078;40;20388;-75
2021/06/14 07:39:03;;;;;;;13.50;12.23;;;25.30;92.60;;;;;;3585789;40;20409;-76
2021/06/14 07:41:29;;;;;;;12.77;11.57;;;25.70;92.20;;;;;;3589152;40;20757;-80
2021/06/14 07:43:55;;;;;;;11.88;10.75;;;25.80;91.50;;;;;;3586827;40;20353;-82
2021/06/14 07:46:23;;;;;;;12.02;10.82;;;;;;;;;;3577314;40;20406;-74
2021/06/14 07:48:49;;;;;;;13.18;11.43;;;25.90;90.80;;;;;;3587624;40;20371;-75
2021/06/14 07:51:15;;;;;;;11.50;10.40;;;;;;;;;;3584023;40;20396;-76
2021/06/14 07:53:41;;;;;;;14.13;12.63;;;26.00;90.70;;;;;;3577446;40;20730;-76
2021/06/14 07:56:08;;;;;;;15.82;13.98;;;;;;;;;;3577494;40;20507;-75
2021/06/14 07:58:34;;;;;;;15.23;13.88;;;26.30;90.70;;;;;;3588726;40;20361;-76
2021/06/14 08:01:02;;;;;;;16.23;14.73;;;26.30;90.80;;;;;;3591946;40;20393;-76
2021/06/14 08:03:30;;;;;;;16.38;14.68;;;26.30;91.40;;;;;;3577735;40;20726;-78
2021/06/14 08:05:56;;;;;;;14.95;13.63;;;26.30;91.60;;;;;;3579204;40;20477;-77
2021/06/14 08:08:22;;;;;;;14.67;13.33;;;26.30;91.60;;;;;;3578659;40;20859;-78
2021/06/14 08:10:50;;;;;;;15.45;13.85;;;26.40;91.30;;;;;;3579834;40;20451;-78
2021/06/14 08:13:16;;;;;;;15.65;14.23;;;;;;;;;;3597840;40;20369;-78
2021/06/14 08:15:43;;;;;;;14.40;13.05;;;26.50;91.40;;;;;;3581155;40;20458;-78
2021/06/14 08:18:27;;;;;;;13.80;12.50;;;26.70;90.60;;;;;;3598037;40;20376;-78
2021/06/14 08:26:21;;;;;;;15.20;13.63;;;26.90;90.50;;;;;;3594669;40;20386;-76
2021/06/14 08:28:47;;;;;;;14.77;13.27;;;27.00;90.50;;;;;;3577790;40;20439;-77
2021/06/14 08:31:13;;;;;;;14.68;13.38;;;26.90;90.50;;;;;;3585610;40;20396;-77
2021/06/14 08:33:39;;;;;;;14.98;13.32;;;27.00;90.50;;;;;;3592384;39;20391;-76
2021/06/14 08:36:06;;;;;;;14.33;13.03;;;27.10;89.90;;;;;;3583535;40;20405;-77
2021/06/14 08:38:32;;;;;;;15.15;13.65;;;27.10;90.20;;;;;;3580263;40;20876;-77
2021/06/14 08:40:59;;;;;;;16.83;15.32;;;27.20;90.50;;;;;;3589715;40;20378;-78
2021/06/14 08:43:26;;;;;;;19.27;14.30;;;27.30;90.50;;;;;;3579685;40;20399;-76
2021/06/14 08:45:52;;;;;;;14.73;12.52;;;27.30;90.70;;;;;;3589089;40;20643;-79
2021/06/14 08:48:19;;;;;;;13.73;12.52;;;27.40;90.30;;;;;;3588794;40;20661;-75
2021/06/14 08:50:45;;;;;;;15.50;14.13;;;27.50;90.10;;;;;;3588222;40;20367;-75
2021/06/14 08:53:13;;;;;;;10.23;9.20;;;27.60;89.00;;;;;;3578368;40;20722;-75
2021/06/14 08:55:39;;;;;;;9.50;8.70;;;27.50;89.30;;;;;;3578642;40;20399;-75
2021/06/14 08:58:05;;;;;;;8.38;6.93;;;27.40;87.20;;;;;;3578861;40;20398;-75
2021/06/14 09:00:33;;;;;;;8.00;6.80;;;27.60;88.10;;;;;;3578939;40;20417;-75
2021/06/14 09:03:00;;;;;;;7.10;6.43;;;;;;;;;;3587959;40;20383;-75
2021/06/14 09:05:27;;;;;;;6.80;6.17;;;27.80;86.40;;;;;;3578156;40;20672;-76
2021/06/14 09:08:00;;;;;;;7.05;6.35;;;27.90;85.00;;;;;;3588752;40;20800;-75
2021/06/14 09:10:30;;;;;;;8.13;6.40;;;27.60;84.50;;;;;;3586568;40;20386;-75
2021/06/14 09:13:10;;;;;;;6.70;6.07;;;27.70;87.30;;;;;;3568941;40;20400;-74
2021/06/14 09:15:37;;;;;;;6.03;5.50;;;27.50;85.60;;;;;;3573013;40;20399;-76
2021/06/14 09:18:14;;;;;;;6.30;5.72;;;27.70;85.10;;;;;;3576143;40;20498;-75
2021/06/14 09:20:51;;;;;;;8.38;6.43;;;28.10;84.10;;;;;;3565931;40;20453;-75
2021/06/14 09:23:17;;;;;;;6.33;5.90;;;28.20;85.30;;;;;;3563188;40;20419;-75
2021/06/14 09:25:48;;;;;;;5.80;4.80;;;28.50;82.20;;;;;;3569352;40;20394;-75
2021/06/14 09:28:14;;;;;;;6.43;5.82;;;28.60;82.40;;;;;;3566075;40;20374;-75
2021/06/14 09:30:40;;;;;;;5.45;4.95;;;28.70;82.10;;;;;;3566180;40;20402;-74
2021/06/14 09:33:08;;;;;;;5.93;5.32;;;28.60;82.60;;;;;;3566922;40;20386;-74
2021/06/14 09:35:36;;;;;;;5.60;5.10;;;28.50;81.00;;;;;;3562839;40;20678;-75
2021/06/14 09:38:05;;;;;;;5.50;4.95;;;28.50;80.90;;;;;;3566214;40;20842;-76
2021/06/14 09:40:34;;;;;;;5.97;5.25;;;28.50;80.90;;;;;;3557468;40;20417;-74
2021/06/14 09:43:04;;;;;;;6.38;5.57;;;28.60;83.30;;;;;;3564402;40;20398;-75
2021/06/14 09:45:30;;;;;;;7.15;4.68;;;;;;;;;;3555250;40;20832;-75
2021/06/14 09:47:56;;;;;;;7.43;6.72;;;28.70;81.70;;;;;;3556457;40;20410;-76
2021/06/14 09:50:25;;;;;;;7.88;7.22;;;29.30;80.30;;;;;;3556843;40;20773;-75
2021/06/14 09:52:51;;;;;;;6.45;5.60;;;29.10;81.20;;;;;;3576278;40;20769;-75
2021/06/14 09:55:18;;;;;;;6.05;5.60;;;29.00;78.40;;;;;;3577317;40;20372;-76
2021/06/14 09:57:44;;;;;;;6.00;5.40;;;28.70;80.00;;;;;;3576368;40;20397;-74
2021/06/14 10:00:13;;;;;;;5.10;4.60;;;28.80;79.50;;;;;;3577331;40;20427;-75
2021/06/14 10:02:40;;;;;;;7.35;5.57;;;29.00;79.80;;;;;;3575459;40;20420;-75
2021/06/14 10:05:14;;;;;;;4.97;4.57;;;;;;;;;;3578122;40;20689;-78
2021/06/14 10:07:45;;;;;;;6.37;5.23;;;29.30;78.40;;;;;;3571302;40;20639;-75
2021/06/14 10:10:19;;;;;;;6.15;5.53;;;29.40;77.40;;;;;;3577878;40;20380;-75
2021/06/14 10:12:49;;;;;;;5.82;5.28;;;28.80;79.40;;;;;;3556083;40;20457;-75
2021/06/14 10:15:17;;;;;;;5.43;4.93;;;28.80;78.60;;;;;;3556000;40;20388;-75
2021/06/14 10:17:44;;;;;;;5.10;4.70;;;29.00;81.30;;;;;;3556010;40;20457;-75
2021/06/14 10:20:16;;;;;;;5.55;5.05;;;29.30;80.30;;;;;;3555851;40;20491;-75
2021/06/14 10:22:43;;;;;;;5.82;5.32;;;;;;;;;;3555589;40;20383;-75
2021/06/14 10:25:10;;;;;;;5.75;5.15;;;;;;;;;;3555879;40;20384;-76
2021/06/14 10:27:36;;;;;;;5.32;4.85;;;;;;;;;;3562516;40;20433;-75
2021/06/14 10:30:05;;;;;;;5.07;4.68;;;;;;;;;;3555562;40;20765;-74
2021/06/14 10:32:33;;;;;;;6.97;6.20;;;;;;;;;;3561179;40;20495;-75
2021/06/14 10:34:59;;;;;;;6.30;5.78;;;;;;;;;;3555667;40;20399;-75
2021/06/14 10:37:26;;;;;;;6.00;5.40;;;;;;;;;;3550422;40;20811;-74
2021/06/14 10:39:55;;;;;;;6.05;5.45;;;;;;;;;;3563846;40;20489;-74
2021/06/14 10:42:21;;;;;;;5.78;4.90;;;;;;;;;;3556688;40;20472;-75
2021/06/14 10:44:47;;;;;;;7.15;5.47;;;29.40;78.80;;;;;;3565275;40;20750;-75
2021/06/14 10:47:14;;;;;;;9.88;7.45;;;29.40;80.20;;;;;;3576744;40;20781;-75
2021/06/14 10:49:41;;;;;;;7.68;6.50;;;29.50;77.20;;;;;;3561146;40;20654;-75
2021/06/14 10:52:07;;;;;;;5.03;4.63;;;29.20;77.10;;;;;;3567331;40;20400;-74
2021/06/14 10:54:37;;;;;;;6.32;5.60;;;29.30;77.70;;;;;;3574673;40;20366;-75
2021/06/14 10:57:07;;;;;;;6.53;5.97;;;29.70;76.30;;;;;;3577857;40;20367;-75
2021/06/14 10:59:36;;;;;;;7.47;6.00;;;;;;;;;;3570295;40;20488;-75
2021/06/14 11:02:05;;;;;;;7.28;6.57;;;;;;;;;;3576714;40;20410;-74
2021/06/14 11:04:31;;;;;;;6.78;5.30;;;30.00;77.90;;;;;;3578088;40;20372;-74
2021/06/14 11:07:00;;;;;;;6.60;5.40;;;29.80;80.20;;;;;;3580367;40;20754;-75
2021/06/14 11:09:37;;;;;;;6.85;5.47;;;29.60;79.10;;;;;;3565641;40;20474;-75
2021/06/14 11:12:04;;;;;;;5.60;5.20;;;29.90;81.50;;;;;;3557743;40;20500;-75
2021/06/14 11:14:36;;;;;;;7.13;5.15;;;30.00;78.10;;;;;;3550964;40;20403;-75
2021/06/14 11:17:15;;;;;;;5.17;4.77;;;30.30;78.50;;;;;;3546289;40;20896;-74
2021/06/14 11:19:42;;;;;;;6.80;5.97;;;30.30;77.30;;;;;;3544891;40;20495;-75
2021/06/14 11:22:10;;;;;;;6.88;6.22;;;30.10;77.50;;;;;;3553149;40;20407;-75
2021/06/14 11:24:37;;;;;;;6.90;6.07;;;30.20;76.60;;;;;;3560208;40;20786;-76
2021/06/14 11:27:04;;;;;;;6.93;6.25;;;30.30;77.10;;;;;;3549557;40;20414;-75
2021/06/14 11:29:40;;;;;;;6.55;5.95;;;;;;;;;;3556766;40;20376;-75
2021/06/14 11:32:07;;;;;;;6.63;6.13;;;;;;;;;;3550650;40;20659;-74
2021/06/14 11:34:39;;;;;;;6.40;5.60;;;;;;;;;;3554050;40;20465;-75
2021/06/14 11:37:05;;;;;;;6.93;6.30;;;;;;;;;;3556867;40;20383;-74
2021/06/14 11:39:33;;;;;;;6.20;5.70;;;;;;;;;;3554636;40;20436;-74
2021/06/14 11:42:08;;;;;;;7.95;5.95;;;;;;;;;;3553570;40;20437;-75
2021/06/14 11:44:34;;;;;;;5.63;5.13;;;30.30;75.70;;;;;;3564590;40;20991;-75
2021/06/14 11:47:12;;;;;;;6.57;6.07;;;31.20;75.60;;;;;;3561729;40;20380;-74
2021/06/14 11:49:38;;;;;;;6.07;5.45;;;31.20;74.40;;;;;;3556147;40;20464;-73
2021/06/14 11:52:16;;;;;;;6.53;5.95;;;31.20;74.50;;;;;;3565592;40;20391;-73
2021/06/14 11:54:44;;;;;;;5.13;4.68;;;31.00;74.90;;;;;;3555820;40;20402;-74
2021/06/14 11:57:10;;;;;;;5.65;4.60;;;;;;;;;;3564691;40;20405;-74
2021/06/14 11:59:37;;;;;;;5.68;5.22;;;;;;;;;;3569334;40;20396;-74
2021/06/14 12:02:04;;;;;;;4.53;4.13;;;;;;;;;;3578877;40;20420;-74
2021/06/14 12:04:30;;;;;;;4.22;3.92;;;31.20;72.80;;;;;;3575107;40;20358;-74
2021/06/14 12:07:02;;;;;;;6.67;6.07;;;;;;;;;;3570498;40;20722;-74
2021/06/14 12:09:30;;;;;;;6.83;6.13;;;31.60;73.10;;;;;;3566303;40;20401;-75
2021/06/14 12:11:58;;;;;;;7.47;6.20;;;31.30;71.40;;;;;;3568207;40;20392;-75
2021/06/14 12:14:25;;;;;;;6.57;5.90;;;;;;;;;;3576978;40;20375;-74
2021/06/14 12:16:56;;;;;;;5.05;4.60;;;;;;;;;;3579139;40;20395;-75
2021/06/14 12:19:24;;;;;;;5.60;5.10;;;;;;;;;;3576205;40;20835;-75
2021/06/14 12:21:51;;;;;;;6.22;5.63;;;;;;;;;;3569194;40;20406;-75
2021/06/14 12:24:18;;;;;;;4.65;4.32;;;;;;;;;;3578235;40;20380;-74
2021/06/14 12:26:47;;;;;;;5.05;4.65;;;;;;;;;;3568717;40;20485;-74
2021/06/14 12:29:21;;;;;;;4.97;4.57;;;30.70;73.60;;;;;;3574679;40;20392;-76
2021/06/14 12:31:58;;;;;;;7.50;6.50;;;31.40;73.30;;;;;;3575927;40;20388;-74
2021/06/14 12:34:26;;;;;;;5.30;4.68;;;31.60;70.40;;;;;;3568518;40;20863;-75
2021/06/14 12:36:57;;;;;;;6.43;5.13;;;31.30;74.20;;;;;;3576247;40;20432;-74
2021/06/14 12:39:23;;;;;;;4.07;3.70;;;31.20;72.70;;;;;;3561387;40;20507;-77
2021/06/14 12:41:49;;;;;;;4.93;4.50;;;31.60;72.20;;;;;;3557447;40;20405;-75
2021/06/14 12:44:15;;;;;;;5.90;5.30;;;31.80;73.50;;;;;;3558307;40;20636;-76
2021/06/14 12:46:43;;;;;;;6.35;5.75;;;31.40;71.80;;;;;;3559052;40;20404;-74
2021/06/14 12:49:08;;;;;;;4.50;4.20;;;31.50;71.40;;;;;;3562826;40;20824;-75
2021/06/14 12:51:38;;;;;;;5.45;4.97;;;31.60;72.00;;;;;;3579501;40;20466;-75
2021/06/14 12:54:05;;;;;;;6.43;5.93;;;32.00;71.60;;;;;;3578475;40;20372;-75
2021/06/14 12:56:31;;;;;;;5.95;5.00;;;31.80;69.80;;;;;;3568189;40;20407;-75
2021/06/14 12:58:57;;;;;;;5.47;4.97;;;32.00;72.70;;;;;;3577316;40;20392;-75
2021/06/14 13:01:24;;;;;;;4.80;4.32;;;31.80;71.90;;;;;;3584190;40;20450;-75
2021/06/14 13:03:51;;;;;;;5.65;5.00;;;31.50;71.50;;;;;;3578527;40;20403;-76
2021/06/14 13:06:17;;;;;;;5.88;5.10;;;32.00;69.30;;;;;;3583341;40;20447;-75
2021/06/14 13:08:45;;;;;;;6.43;5.82;;;32.00;70.40;;;;;;3569675;40;20377;-75
2021/06/14 13:11:13;;;;;;;5.65;5.22;;;31.30;69.40;;;;;;3577928;40;20751;-75
2021/06/14 13:13:42;;;;;;;6.00;4.40;;;;;;;;;;3577499;40;20466;-74
2021/06/14 13:16:10;;;;;;;6.65;5.20;;;31.40;72.70;;;;;;3576400;40;20399;-75
2021/06/14 13:18:38;;;;;;;4.60;4.20;;;32.70;71.10;;;;;;3582860;40;20395;-75
2021/06/14 13:21:07;;;;;;;4.95;4.32;;;33.30;68.00;;;;;;3586146;40;20406;-75
2021/06/14 13:23:35;;;;;;;7.13;6.45;;;33.30;69.50;;;;;;3586318;40;20422;-74